COUO2: Red River nr Courtney, OK

Data processed at Tue May 21 2019 23:50


All information presented herein is the property of the government of the United States of America and may be revised or deleted at any time without prior notice.
Dissemination of this information without the expressed written consent of the Public Affairs Office, Tulsa District U.S. Army Corps of Engineers is strictly prohibited.
These data are gathered electronically and, as presented, have not undergone any form of quality control. These data are not guaranteed to be valid or correct.
Go to home page.
Go to station list.
Go to home page.

Upstream stations:

Downstream station:
Previous Day
Next Day
Current Day
    
SHEF ID:       COUO2     Red River nr Courtney, OK
STATION TYPE:  

               PRECIP     STAGE  RIV-FLOW  BAT-LOAD
                   in        ft       cfs      volt
              Ccp-Rev   Ccp-Rev   Ccp-Rev   Ccp-Rev
(US/Central)
05/21 00:00      ----     18.36     10180     12.81
05/21 01:00      ----     18.36     10180     12.81
05/21 02:00      ----     18.27     10002     12.81
05/21 03:00      ----     18.17      9805     12.81
05/21 04:00      ----     18.08      9630     12.73
05/21 05:00      ----     18.06      9591     12.73
05/21 06:00      ----     17.99      9456     12.73
05/21 07:00      ----     18.00      9475     12.65
05/21 08:00      ----     17.94      9360     12.65
05/21 09:00      ----     17.87      9227     12.89
05/21 10:00      ----     17.81      9113     13.05
05/21 11:00      ----     17.72      8944     13.29
05/21 12:00      ----     17.67      8850     13.44
05/21 13:00      ----     17.61      8739     13.60
05/21 14:00      ----     17.57      8665     13.60
05/21 15:00      ----     17.51      8555     13.53
05/21 16:00      ----     17.50      8536     13.53
05/21 17:00      ----     17.48      8500     13.44
05/21 18:00      ----     17.43      8409     13.21
05/21 19:00      ----     17.35      8264     13.05
05/21 20:00      ----     17.31      8192     12.97
05/21 21:00      ----     17.25      8085     12.89
05/21 22:00      ----     17.22      8031     12.81
05/21 23:00      ----     17.18      7960     12.81